createdAt,value
2019-01-31T00:00:55.370Z,1.93
2019-01-31T00:01:55.360Z,2.00
2019-01-31T00:02:55.345Z,1.91
2019-01-31T00:03:55.333Z,2.00
2019-01-31T00:04:55.318Z,1.99
2019-01-31T00:05:55.308Z,2.02
2019-01-31T00:06:55.293Z,1.95
2019-01-31T00:07:55.282Z,1.93
2019-01-31T00:08:55.268Z,1.99
2019-01-31T00:09:55.258Z,2.00
2019-01-31T00:10:55.242Z,2.07
2019-01-31T00:11:55.231Z,2.02
2019-01-31T00:12:55.216Z,2.06
2019-01-31T00:13:55.205Z,2.05
2019-01-31T00:14:55.191Z,2.09
2019-01-31T00:15:55.180Z,2.05
2019-01-31T00:16:55.165Z,2.07
2019-01-31T00:17:55.155Z,2.09
2019-01-31T00:18:55.261Z,2.10
2019-01-31T00:19:55.379Z,2.10
2019-01-31T00:20:55.114Z,2.14
2019-01-31T00:21:55.103Z,2.18
2019-01-31T00:22:55.089Z,2.21
2019-01-31T00:23:55.079Z,2.23
2019-01-31T00:24:55.063Z,2.20
2019-01-31T00:25:55.054Z,2.14
2019-01-31T00:26:55.038Z,2.07
2019-01-31T00:27:55.059Z,2.16
2019-01-31T00:28:55.013Z,2.16
2019-01-31T00:29:55.002Z,2.24
2019-01-31T00:30:54.989Z,2.25
2019-01-31T00:31:54.977Z,2.21
2019-01-31T00:32:54.962Z,2.24
2019-01-31T00:33:54.952Z,2.16
2019-01-31T00:34:55.024Z,2.16
2019-01-31T00:35:54.926Z,2.18
2019-01-31T00:36:54.926Z,2.17
2019-01-31T00:37:54.911Z,2.16
2019-01-31T00:38:56.847Z,2.24
2019-01-31T00:39:54.875Z,2.10
2019-01-31T00:40:54.861Z,2.21
2019-01-31T00:41:54.851Z,2.21
2019-01-31T00:42:54.858Z,2.21
2019-01-31T00:43:54.827Z,2.24
2019-01-31T00:44:54.820Z,2.24
2019-01-31T00:45:54.799Z,2.24
2019-01-31T00:46:54.786Z,2.18
2019-01-31T00:47:54.774Z,2.28
2019-01-31T00:48:54.761Z,2.18
2019-01-31T00:49:54.765Z,2.16
2019-01-31T00:50:54.734Z,2.25
2019-01-31T00:51:54.723Z,2.20
2019-01-31T00:52:54.709Z,2.21
2019-01-31T00:53:54.698Z,2.21
2019-01-31T00:54:54.776Z,2.21
2019-01-31T00:55:54.672Z,2.18
2019-01-31T00:56:54.658Z,2.21
2019-01-31T00:57:54.649Z,2.20
2019-01-31T00:58:54.633Z,2.18
2019-01-31T00:59:54.621Z,2.24
2019-01-31T01:00:54.609Z,2.23
2019-01-31T01:01:54.596Z,2.25
2019-01-31T01:02:54.581Z,2.25
2019-01-31T01:03:54.570Z,2.21
2019-01-31T01:04:54.555Z,2.24
2019-01-31T01:05:54.547Z,2.35
2019-01-31T01:06:54.530Z,2.23
2019-01-31T01:07:54.820Z,2.24
2019-01-31T01:08:54.505Z,2.28
2019-01-31T01:09:54.494Z,2.25
2019-01-31T01:10:54.480Z,2.27
2019-01-31T01:11:54.469Z,2.27
2019-01-31T01:12:54.468Z,2.28
2019-01-31T01:13:54.442Z,2.36
2019-01-31T01:14:54.483Z,2.31
2019-01-31T01:15:54.417Z,2.25
2019-01-31T01:16:54.402Z,2.31
2019-01-31T01:17:54.391Z,2.34
2019-01-31T01:18:54.377Z,2.27
2019-01-31T01:19:54.365Z,2.25
2019-01-31T01:20:54.350Z,2.28
2019-01-31T01:21:54.339Z,2.28
2019-01-31T01:22:54.325Z,2.30
2019-01-31T01:23:54.315Z,2.28
2019-01-31T01:24:54.301Z,2.30
2019-01-31T01:25:54.288Z,2.36
2019-01-31T01:26:54.274Z,2.31
2019-01-31T01:27:54.262Z,2.31
2019-01-31T01:28:54.250Z,2.31
2019-01-31T01:29:54.237Z,2.28
2019-01-31T01:30:54.222Z,2.25
2019-01-31T01:31:54.211Z,2.30
2019-01-31T01:32:54.199Z,2.28
2019-01-31T01:33:54.186Z,2.34
2019-01-31T01:35:01.064Z,2.28
2019-01-31T01:35:54.160Z,2.28
2019-01-31T01:36:54.145Z,2.25
2019-01-31T01:37:54.138Z,2.30
2019-01-31T01:38:54.120Z,2.23
2019-01-31T01:39:54.108Z,2.25
2019-01-31T01:40:54.094Z,2.24
2019-01-31T01:41:54.084Z,2.31
2019-01-31T01:42:54.069Z,2.34
2019-01-31T01:43:54.057Z,2.31
2019-01-31T01:44:54.043Z,2.28
2019-01-31T01:45:54.032Z,2.30
2019-01-31T01:46:54.017Z,2.35
2019-01-31T01:47:54.006Z,2.27
2019-01-31T01:48:53.993Z,2.35
2019-01-31T01:49:53.981Z,2.38
2019-01-31T01:50:53.967Z,2.25
2019-01-31T01:51:53.955Z,2.24
2019-01-31T01:52:53.940Z,2.36
2019-01-31T01:53:53.930Z,2.28
2019-01-31T01:54:53.916Z,2.27
2019-01-31T01:55:53.904Z,2.25
2019-01-31T01:56:53.902Z,2.27
2019-01-31T01:57:53.879Z,2.35
2019-01-31T01:58:53.934Z,2.24
2019-01-31T01:59:53.855Z,2.28
2019-01-31T02:00:53.844Z,2.35
2019-01-31T02:01:53.827Z,2.25
2019-01-31T02:02:53.812Z,2.25
2019-01-31T02:03:53.802Z,2.24
2019-01-31T02:04:53.786Z,2.25
2019-01-31T02:05:53.776Z,2.25
2019-01-31T02:06:53.761Z,2.21
2019-01-31T02:07:53.749Z,2.21
2019-01-31T02:08:53.734Z,2.17
2019-01-31T02:09:53.723Z,2.23
2019-01-31T02:10:53.708Z,2.27
2019-01-31T02:11:53.697Z,2.21
2019-01-31T02:12:53.682Z,2.21
2019-01-31T02:13:53.674Z,2.24
2019-01-31T02:14:53.657Z,2.23
2019-01-31T02:15:53.645Z,2.21
2019-01-31T02:16:53.630Z,2.21
2019-01-31T02:17:53.619Z,2.14
2019-01-31T02:18:53.605Z,2.24
2019-01-31T02:19:53.592Z,2.21
2019-01-31T02:20:53.577Z,2.17
2019-01-31T02:21:53.567Z,2.14
2019-01-31T02:22:53.553Z,2.16
2019-01-31T02:23:53.540Z,2.20
2019-01-31T02:24:53.525Z,2.16
2019-01-31T02:25:53.514Z,2.10
2019-01-31T02:26:53.499Z,2.10
2019-01-31T02:27:53.488Z,2.18
2019-01-31T02:28:53.473Z,2.20
2019-01-31T02:29:53.462Z,2.17
2019-01-31T02:30:53.447Z,2.18
2019-01-31T02:31:53.437Z,2.10
2019-01-31T02:32:53.421Z,2.16
2019-01-31T02:33:53.410Z,2.12
2019-01-31T02:34:53.399Z,2.09
2019-01-31T02:35:53.385Z,2.07
2019-01-31T02:36:53.370Z,2.17
2019-01-31T02:37:53.359Z,2.12
2019-01-31T02:38:53.344Z,2.06
2019-01-31T02:39:53.332Z,2.06
2019-01-31T02:40:53.319Z,2.16
2019-01-31T02:41:53.306Z,2.12
2019-01-31T02:42:53.291Z,2.14
2019-01-31T02:43:53.280Z,2.12
2019-01-31T02:44:53.265Z,2.07
2019-01-31T02:45:53.255Z,2.07
2019-01-31T02:46:53.239Z,2.17
2019-01-31T02:47:53.231Z,2.10
2019-01-31T02:48:53.212Z,2.09
2019-01-31T02:49:53.452Z,2.14
2019-01-31T02:50:53.188Z,2.09
2019-01-31T02:51:53.178Z,2.02
2019-01-31T02:52:54.375Z,2.05
2019-01-31T02:53:53.148Z,2.09
2019-01-31T02:54:53.138Z,2.02
2019-01-31T02:55:53.121Z,2.05
2019-01-31T02:56:53.112Z,2.02
2019-01-31T02:57:53.094Z,2.00
2019-01-31T02:58:53.085Z,2.10
2019-01-31T02:59:53.068Z,1.99
2019-01-31T03:00:53.061Z,2.02
2019-01-31T03:01:53.046Z,2.07
2019-01-31T03:02:53.031Z,2.06
2019-01-31T03:03:53.016Z,2.05
2019-01-31T03:04:53.010Z,2.06
2019-01-31T03:05:52.989Z,2.05
2019-01-31T03:06:52.988Z,1.87
2019-01-31T03:07:52.964Z,1.88
2019-01-31T03:08:52.952Z,1.87
2019-01-31T03:09:55.025Z,1.88
2019-01-31T03:10:52.928Z,1.91
2019-01-31T03:11:52.926Z,1.93
2019-01-31T03:12:52.902Z,1.95
2019-01-31T03:13:52.885Z,1.95
2019-01-31T03:14:52.875Z,1.86
2019-01-31T03:15:52.858Z,1.98
2019-01-31T03:16:52.848Z,1.93
2019-01-31T03:17:52.834Z,1.87
2019-01-31T03:18:52.822Z,1.95
2019-01-31T03:19:52.805Z,1.81
2019-01-31T03:20:52.798Z,1.87
2019-01-31T03:21:52.784Z,1.95
2019-01-31T03:22:52.769Z,1.87
2019-01-31T03:23:52.766Z,1.93
2019-01-31T03:24:52.743Z,1.91
2019-01-31T03:25:52.727Z,1.80
2019-01-31T03:26:52.717Z,1.88
2019-01-31T03:27:52.700Z,1.80
2019-01-31T03:28:52.690Z,1.90
2019-01-31T03:29:52.674Z,1.79
2019-01-31T03:30:52.665Z,1.91
2019-01-31T03:31:52.651Z,1.95
2019-01-31T03:32:52.638Z,1.99
2019-01-31T03:33:52.624Z,1.80
2019-01-31T03:34:52.735Z,1.88
2019-01-31T03:35:52.599Z,1.80
2019-01-31T03:36:52.587Z,1.93
2019-01-31T03:37:52.572Z,1.91
2019-01-31T03:38:52.562Z,1.81
2019-01-31T03:39:52.544Z,1.79
2019-01-31T03:40:52.533Z,1.91
2019-01-31T03:41:52.518Z,1.90
2019-01-31T03:42:52.512Z,1.77
2019-01-31T03:43:52.492Z,1.83
2019-01-31T03:44:52.482Z,1.91
2019-01-31T03:45:52.468Z,1.81
2019-01-31T03:46:52.457Z,1.80
2019-01-31T03:47:52.442Z,1.87
2019-01-31T03:48:52.430Z,1.91
2019-01-31T03:49:52.416Z,1.88
2019-01-31T03:50:52.404Z,1.86
2019-01-31T03:51:52.389Z,1.79
2019-01-31T03:52:52.379Z,1.83
2019-01-31T03:53:52.363Z,1.86
2019-01-31T03:54:52.352Z,1.80
2019-01-31T03:55:52.336Z,1.90
2019-01-31T03:56:52.333Z,1.86
2019-01-31T03:57:52.311Z,1.84
2019-01-31T03:58:52.301Z,1.83
2019-01-31T03:59:52.284Z,1.81
2019-01-31T04:00:52.279Z,1.86
2019-01-31T04:01:52.260Z,1.81
2019-01-31T04:02:52.249Z,1.80
2019-01-31T04:03:52.232Z,1.84
2019-01-31T04:04:52.223Z,1.84
2019-01-31T04:05:52.211Z,1.77
2019-01-31T04:06:52.196Z,1.69
2019-01-31T04:07:52.180Z,1.76
2019-01-31T04:08:52.274Z,1.76
2019-01-31T04:09:52.155Z,1.73
2019-01-31T04:10:52.144Z,1.69
2019-01-31T04:11:52.128Z,1.72
2019-01-31T04:12:52.118Z,1.76
2019-01-31T04:13:52.104Z,1.68
2019-01-31T04:14:52.092Z,1.68
2019-01-31T04:15:52.076Z,1.72
2019-01-31T04:16:52.072Z,1.59
2019-01-31T04:17:52.063Z,1.69
2019-01-31T04:18:52.039Z,1.70
2019-01-31T04:19:52.023Z,1.65
2019-01-31T04:20:52.014Z,1.63
2019-01-31T04:21:52.034Z,1.62
2019-01-31T04:22:52.008Z,1.58
2019-01-31T04:23:51.972Z,1.59
2019-01-31T04:24:51.962Z,1.54
2019-01-31T04:25:51.945Z,1.59
2019-01-31T04:26:51.935Z,1.54
2019-01-31T04:27:51.922Z,1.55
2019-01-31T04:28:51.908Z,1.51
2019-01-31T04:29:51.894Z,1.52
2019-01-31T04:30:51.930Z,1.54
2019-01-31T04:31:51.865Z,1.60
2019-01-31T04:32:51.854Z,1.55
2019-01-31T04:33:51.839Z,1.54
2019-01-31T04:34:51.830Z,1.59
2019-01-31T04:35:51.814Z,1.59
2019-01-31T04:36:51.805Z,1.59
2019-01-31T04:37:51.788Z,1.59
2019-01-31T04:38:51.777Z,1.58
2019-01-31T04:39:51.760Z,1.58
2019-01-31T04:40:51.755Z,1.52
2019-01-31T04:41:51.734Z,1.54
2019-01-31T04:42:51.728Z,1.55
2019-01-31T04:43:51.707Z,1.52
2019-01-31T04:44:51.697Z,1.52
2019-01-31T04:45:51.681Z,1.52
2019-01-31T04:46:51.671Z,1.55
2019-01-31T04:47:51.660Z,1.47
2019-01-31T04:48:51.663Z,1.58
2019-01-31T04:49:51.629Z,1.58
2019-01-31T04:50:51.619Z,1.51
2019-01-31T04:51:51.602Z,1.60
2019-01-31T04:52:51.601Z,1.54
2019-01-31T04:53:51.587Z,1.40
2019-01-31T04:54:51.591Z,1.41
2019-01-31T04:55:51.551Z,1.52
2019-01-31T04:56:51.540Z,1.45
2019-01-31T04:57:51.524Z,1.48
2019-01-31T04:58:51.517Z,1.41
2019-01-31T04:59:51.501Z,1.48
2019-01-31T05:00:51.492Z,1.50
2019-01-31T05:01:51.474Z,1.47
2019-01-31T05:02:51.472Z,1.52
2019-01-31T05:03:51.447Z,1.41
2019-01-31T05:04:51.437Z,1.44
2019-01-31T05:05:51.421Z,1.34
2019-01-31T05:06:51.411Z,1.40
2019-01-31T05:07:51.394Z,1.37
2019-01-31T05:08:51.383Z,1.32
2019-01-31T05:09:51.455Z,1.40
2019-01-31T05:10:51.367Z,1.37
2019-01-31T05:11:51.343Z,1.40
2019-01-31T05:12:51.331Z,1.40
2019-01-31T05:13:51.316Z,1.34
2019-01-31T05:14:51.305Z,1.36
2019-01-31T05:15:51.290Z,1.42
2019-01-31T05:16:51.280Z,1.42
2019-01-31T05:17:51.264Z,1.47
2019-01-31T05:18:51.253Z,1.40
2019-01-31T05:19:51.237Z,1.36
2019-01-31T05:20:51.228Z,1.36
2019-01-31T05:21:51.211Z,1.44
2019-01-31T05:22:51.201Z,1.40
2019-01-31T05:23:51.184Z,1.41
2019-01-31T05:24:51.175Z,1.36
2019-01-31T05:25:51.160Z,1.37
2019-01-31T05:26:51.148Z,1.36
2019-01-31T05:27:51.146Z,1.37
2019-01-31T05:28:51.137Z,1.33
2019-01-31T05:29:51.110Z,1.37
2019-01-31T05:30:51.098Z,1.33
2019-01-31T05:31:51.099Z,1.34
2019-01-31T05:32:51.075Z,1.41
2019-01-31T05:33:51.056Z,1.37
2019-01-31T05:34:51.045Z,1.44
2019-01-31T05:35:51.030Z,1.45
2019-01-31T05:36:51.021Z,1.34
2019-01-31T05:37:51.005Z,1.37
2019-01-31T05:38:50.995Z,1.30
2019-01-31T05:39:50.993Z,1.33
2019-01-31T05:40:55.676Z,1.40
2019-01-31T05:41:50.953Z,1.41
2019-01-31T05:42:50.943Z,1.40
2019-01-31T05:43:50.928Z,1.27
2019-01-31T05:44:50.919Z,1.32
2019-01-31T05:45:50.905Z,1.27
2019-01-31T05:46:50.892Z,1.27
2019-01-31T05:47:50.876Z,1.32
2019-01-31T05:48:50.875Z,1.30
2019-01-31T05:49:50.851Z,1.12
2019-01-31T05:50:50.841Z,1.30
2019-01-31T05:51:50.828Z,1.33
2019-01-31T05:52:50.814Z,1.27
2019-01-31T05:53:50.811Z,1.30
2019-01-31T05:54:50.791Z,1.30
2019-01-31T05:55:50.774Z,1.30
2019-01-31T05:56:50.763Z,1.30
2019-01-31T05:57:50.748Z,1.27
2019-01-31T05:58:50.739Z,1.18
2019-01-31T05:59:50.725Z,1.32
2019-01-31T06:00:50.713Z,1.29
2019-01-31T06:01:50.697Z,1.20
2019-01-31T06:02:50.687Z,1.16
2019-01-31T06:03:50.671Z,1.05
2019-01-31T06:04:53.748Z,1.09
2019-01-31T06:05:50.646Z,1.06
2019-01-31T06:06:50.649Z,1.08
2019-01-31T06:07:50.620Z,1.06
2019-01-31T06:08:50.610Z,1.00
2019-01-31T06:09:50.595Z,1.02
2019-01-31T06:10:50.585Z,0.98
2019-01-31T06:11:50.570Z,0.90
2019-01-31T06:12:50.559Z,1.04
2019-01-31T06:13:50.544Z,0.93
2019-01-31T06:14:50.534Z,0.91
2019-01-31T06:15:50.518Z,0.93
2019-01-31T06:16:50.508Z,0.88
2019-01-31T06:17:50.493Z,0.93
2019-01-31T06:18:50.482Z,0.97
2019-01-31T06:19:50.466Z,0.94
2019-01-31T06:20:50.457Z,0.91
2019-01-31T06:21:50.441Z,0.97
2019-01-31T06:22:50.432Z,0.93
2019-01-31T06:23:50.416Z,0.88
2019-01-31T06:24:50.405Z,0.78
2019-01-31T06:25:50.393Z,0.79
2019-01-31T06:26:50.379Z,0.86
2019-01-31T06:27:50.366Z,0.72
2019-01-31T06:28:50.354Z,0.70
2019-01-31T06:29:50.339Z,0.73
2019-01-31T06:30:50.328Z,0.80
2019-01-31T06:31:50.311Z,0.80
2019-01-31T06:32:50.301Z,0.83
2019-01-31T06:33:50.285Z,0.78
2019-01-31T06:34:50.275Z,0.76
2019-01-31T06:35:50.258Z,0.75
2019-01-31T06:36:50.248Z,0.78
2019-01-31T06:37:50.232Z,0.75
2019-01-31T06:38:50.221Z,0.69
2019-01-31T06:39:50.205Z,0.69
2019-01-31T06:40:50.194Z,0.68
2019-01-31T06:41:50.179Z,0.73
2019-01-31T06:42:50.170Z,0.79
2019-01-31T06:43:50.167Z,0.62
2019-01-31T06:44:50.141Z,0.44
2019-01-31T06:45:50.126Z,0.50
2019-01-31T06:46:50.115Z,0.32
2019-01-31T06:47:50.100Z,0.38
2019-01-31T06:48:50.089Z,0.42
2019-01-31T06:49:50.072Z,0.47
2019-01-31T06:50:50.061Z,0.42
2019-01-31T06:51:50.045Z,0.42
2019-01-31T06:52:50.034Z,0.47
2019-01-31T06:53:50.019Z,0.50
2019-01-31T06:54:50.008Z,0.46
2019-01-31T06:55:49.994Z,0.44
2019-01-31T06:56:49.982Z,0.44
2019-01-31T06:57:49.966Z,0.50
2019-01-31T06:58:49.955Z,0.42
2019-01-31T06:59:49.942Z,0.49
2019-01-31T07:00:49.928Z,0.57
2019-01-31T07:01:49.912Z,0.42
2019-01-31T07:02:49.906Z,0.42
2019-01-31T07:03:49.898Z,0.49
2019-01-31T07:04:49.874Z,0.49
2019-01-31T07:05:49.858Z,0.46
2019-01-31T07:06:49.847Z,0.46
2019-01-31T07:07:49.836Z,0.36
2019-01-31T07:08:49.817Z,0.39
2019-01-31T07:09:49.807Z,0.29
2019-01-31T07:10:49.791Z,0.29
2019-01-31T07:11:49.779Z,0.32
2019-01-31T07:12:49.763Z,0.32
2019-01-31T07:13:49.754Z,0.31
2019-01-31T07:14:49.737Z,0.24
2019-01-31T07:15:49.724Z,0.33
2019-01-31T07:16:49.709Z,0.29
2019-01-31T07:17:49.698Z,0.26
2019-01-31T07:18:49.682Z,0.26
2019-01-31T07:19:49.670Z,0.28
2019-01-31T07:20:49.656Z,0.38
2019-01-31T07:21:49.644Z,0.36
2019-01-31T07:22:49.628Z,0.33
2019-01-31T07:23:49.615Z,0.33
2019-01-31T07:24:49.600Z,0.38
2019-01-31T07:25:49.604Z,0.35
2019-01-31T07:26:49.573Z,0.41
2019-01-31T07:27:49.561Z,0.35
2019-01-31T07:28:49.545Z,0.42
2019-01-31T07:29:49.535Z,0.36
2019-01-31T07:30:49.518Z,0.33
2019-01-31T07:31:49.508Z,0.31
2019-01-31T07:32:49.494Z,0.32
2019-01-31T07:33:49.481Z,0.33
2019-01-31T07:34:49.464Z,0.33
2019-01-31T07:35:52.027Z,0.28
2019-01-31T07:36:49.437Z,0.35
2019-01-31T07:37:49.427Z,0.39
2019-01-31T07:38:49.410Z,0.33
2019-01-31T07:39:49.398Z,0.24
2019-01-31T07:40:49.383Z,0.24
2019-01-31T07:41:49.372Z,0.24
2019-01-31T07:42:49.355Z,0.35
2019-01-31T07:43:49.343Z,0.46
2019-01-31T07:44:49.328Z,0.33
2019-01-31T07:45:49.316Z,0.36
2019-01-31T07:46:49.301Z,0.38
2019-01-31T07:47:49.303Z,0.36
2019-01-31T07:48:49.273Z,0.44
2019-01-31T07:49:49.264Z,0.42
2019-01-31T07:50:49.246Z,0.33
2019-01-31T07:51:49.246Z,0.38
2019-01-31T07:52:49.224Z,0.36
2019-01-31T07:53:49.217Z,0.26
2019-01-31T07:54:49.197Z,0.41
2019-01-31T07:55:49.285Z,0.31
2019-01-31T07:56:49.165Z,0.26
2019-01-31T07:57:49.153Z,0.41
2019-01-31T07:58:49.142Z,0.53
2019-01-31T07:59:49.127Z,0.38
2019-01-31T08:00:49.118Z,0.38
2019-01-31T08:01:49.098Z,0.33
2019-01-31T08:02:49.083Z,0.42
2019-01-31T08:03:49.070Z,0.41
2019-01-31T08:04:49.054Z,0.39
2019-01-31T08:05:49.043Z,0.32
2019-01-31T08:06:49.030Z,0.31
2019-01-31T08:07:49.015Z,0.31
2019-01-31T08:08:49.007Z,0.21
2019-01-31T08:09:49.007Z,0.32
2019-01-31T08:10:48.972Z,0.33
2019-01-31T08:11:52.702Z,0.24
2019-01-31T08:12:48.945Z,0.33
2019-01-31T08:13:48.933Z,0.38
2019-01-31T08:14:49.217Z,0.41
2019-01-31T08:15:48.905Z,0.41
2019-01-31T08:16:48.889Z,0.41
2019-01-31T08:17:48.879Z,0.44
2019-01-31T08:18:48.862Z,0.44
2019-01-31T08:19:48.955Z,0.42
2019-01-31T08:20:48.836Z,0.35
2019-01-31T08:21:48.824Z,0.35
2019-01-31T08:22:48.807Z,0.38
2019-01-31T08:23:48.795Z,0.41
2019-01-31T08:24:48.779Z,0.50
2019-01-31T08:25:48.768Z,0.55
2019-01-31T08:26:48.752Z,0.47
2019-01-31T08:27:48.801Z,0.55
2019-01-31T08:28:48.724Z,0.57
2019-01-31T08:29:48.715Z,0.57
2019-01-31T08:30:48.698Z,0.55
2019-01-31T08:31:48.686Z,0.51
2019-01-31T08:32:48.670Z,0.58
2019-01-31T08:33:48.659Z,0.62
2019-01-31T08:34:48.645Z,0.68
2019-01-31T08:35:48.630Z,0.72
2019-01-31T08:36:48.614Z,0.75
2019-01-31T08:37:48.606Z,0.79
2019-01-31T08:38:48.593Z,0.79
2019-01-31T08:39:48.579Z,0.87
2019-01-31T08:40:48.561Z,0.79
2019-01-31T08:41:48.551Z,0.78
2019-01-31T08:42:48.541Z,0.83
2019-01-31T08:43:48.521Z,0.93
2019-01-31T08:44:48.506Z,0.93
2019-01-31T08:45:48.500Z,0.93
2019-01-31T08:46:48.479Z,0.94
2019-01-31T08:47:48.468Z,0.87
2019-01-31T08:48:48.455Z,0.90
2019-01-31T08:49:48.442Z,0.84
2019-01-31T08:50:48.427Z,0.93
2019-01-31T08:51:48.421Z,0.90
2019-01-31T08:52:48.409Z,0.83
2019-01-31T08:53:48.388Z,0.88
2019-01-31T08:54:48.377Z,0.91
2019-01-31T08:55:48.363Z,0.93
2019-01-31T08:56:48.349Z,0.86
2019-01-31T08:57:48.335Z,0.87
2019-01-31T08:58:48.324Z,0.84
2019-01-31T08:59:48.323Z,0.91
2019-01-31T09:00:48.292Z,0.96
2019-01-31T09:01:48.282Z,0.88
2019-01-31T09:02:48.268Z,0.87
2019-01-31T09:03:48.254Z,0.87
2019-01-31T09:04:48.239Z,0.87
2019-01-31T09:05:48.229Z,0.80
2019-01-31T09:06:48.215Z,0.83
2019-01-31T09:07:48.212Z,0.70
2019-01-31T09:08:48.186Z,0.72
2019-01-31T09:09:48.190Z,0.73
2019-01-31T09:10:48.159Z,0.78
2019-01-31T09:11:48.149Z,0.75
2019-01-31T09:12:48.133Z,0.72
2019-01-31T09:13:48.123Z,0.79
2019-01-31T09:14:48.106Z,0.80
2019-01-31T09:15:48.094Z,0.79
2019-01-31T09:16:48.079Z,0.72
2019-01-31T09:17:48.071Z,0.83
2019-01-31T09:18:48.053Z,0.86
2019-01-31T09:19:48.040Z,0.93
2019-01-31T09:20:48.025Z,0.94
2019-01-31T09:21:48.014Z,0.91
2019-01-31T09:22:47.999Z,0.93
2019-01-31T09:23:47.989Z,0.88
2019-01-31T09:24:47.971Z,0.83
2019-01-31T09:25:47.962Z,0.87
2019-01-31T09:26:47.945Z,0.91
2019-01-31T09:27:47.933Z,0.93
2019-01-31T09:28:47.921Z,0.88
2019-01-31T09:29:47.907Z,0.97
2019-01-31T09:30:47.892Z,0.93
2019-01-31T09:31:47.882Z,1.00
2019-01-31T09:32:47.866Z,1.12
2019-01-31T09:33:47.854Z,0.91
2019-01-31T09:34:47.876Z,1.02
2019-01-31T09:35:47.828Z,1.05
2019-01-31T09:36:47.818Z,1.16
2019-01-31T09:37:47.803Z,1.14
2019-01-31T09:38:47.788Z,1.27
2019-01-31T09:39:47.775Z,1.40
2019-01-31T09:40:47.761Z,1.30
2019-01-31T09:41:47.751Z,1.33
2019-01-31T09:42:47.736Z,1.48
2019-01-31T09:43:47.724Z,1.45
2019-01-31T09:44:47.710Z,1.40
2019-01-31T09:45:47.699Z,1.51
2019-01-31T09:46:47.685Z,1.54
2019-01-31T09:47:47.673Z,1.58
2019-01-31T09:48:47.658Z,1.62
2019-01-31T09:49:47.648Z,1.62
2019-01-31T09:50:47.633Z,1.69
2019-01-31T09:51:47.621Z,1.83
2019-01-31T09:52:47.607Z,1.87
2019-01-31T09:53:47.596Z,1.83
2019-01-31T09:54:47.585Z,1.81
2019-01-31T09:55:47.571Z,1.84
2019-01-31T09:56:47.556Z,1.91
2019-01-31T09:57:47.546Z,1.68
2019-01-31T09:58:47.537Z,1.76
2019-01-31T09:59:47.521Z,1.72
2019-01-31T10:00:47.506Z,1.65
2019-01-31T10:01:47.496Z,1.69
2019-01-31T10:02:47.482Z,1.60
2019-01-31T10:03:47.532Z,1.69
2019-01-31T10:04:47.457Z,1.66
2019-01-31T10:05:47.459Z,1.60
2019-01-31T10:06:47.432Z,1.59
2019-01-31T10:07:47.422Z,1.59
2019-01-31T10:08:47.408Z,1.65
2019-01-31T10:09:47.403Z,1.70
2019-01-31T10:10:47.431Z,1.73
2019-01-31T10:11:47.485Z,1.77
2019-01-31T10:12:47.404Z,1.73
2019-01-31T10:13:47.530Z,1.70
2019-01-31T10:14:47.361Z,1.76
2019-01-31T10:15:47.322Z,1.79
2019-01-31T10:16:47.510Z,1.77
2019-01-31T10:17:47.339Z,1.81
2019-01-31T10:18:47.313Z,1.91
2019-01-31T10:19:47.306Z,1.90
2019-01-31T10:20:47.309Z,1.91
2019-01-31T10:21:47.299Z,1.83
2019-01-31T10:22:47.241Z,1.86
2019-01-31T10:23:47.243Z,1.90
2019-01-31T10:24:47.223Z,1.91
2019-01-31T10:25:47.200Z,1.88
2019-01-31T10:26:47.189Z,2.07
2019-01-31T10:27:47.174Z,2.06
2019-01-31T10:28:47.164Z,2.00
2019-01-31T10:29:47.151Z,2.00
2019-01-31T10:30:47.147Z,2.03
2019-01-31T10:31:47.126Z,1.98
2019-01-31T10:32:47.362Z,1.90
2019-01-31T10:33:47.102Z,1.86
2019-01-31T10:34:47.089Z,1.86
2019-01-31T10:35:47.080Z,1.83
2019-01-31T10:36:47.063Z,1.86
2019-01-31T10:37:47.053Z,1.72
2019-01-31T10:38:47.039Z,1.72
2019-01-31T10:39:47.038Z,1.76
2019-01-31T10:40:47.015Z,1.80
2019-01-31T10:41:47.011Z,1.83
2019-01-31T10:42:51.819Z,1.91
2019-01-31T10:43:46.980Z,1.81
2019-01-31T10:44:46.968Z,1.60
2019-01-31T10:45:46.956Z,1.59
2019-01-31T10:46:46.949Z,1.80
2019-01-31T10:47:46.930Z,1.83
2019-01-31T10:48:46.920Z,1.86
2019-01-31T10:49:46.922Z,1.93
2019-01-31T10:50:46.894Z,2.03
2019-01-31T10:51:46.883Z,2.02
2019-01-31T10:52:46.872Z,2.05
2019-01-31T10:53:46.863Z,2.09
2019-01-31T10:54:46.845Z,2.07
2019-01-31T10:55:46.987Z,2.12
2019-01-31T10:56:46.823Z,2.12
2019-01-31T10:57:46.811Z,2.10
2019-01-31T10:58:46.797Z,1.99
2019-01-31T10:59:46.788Z,1.91
2019-01-31T11:00:46.775Z,1.91
2019-01-31T11:01:46.764Z,1.77
2019-01-31T11:02:47.922Z,1.88
2019-01-31T11:03:46.740Z,2.02
2019-01-31T11:04:46.726Z,2.05
2019-01-31T11:05:46.717Z,2.10
2019-01-31T11:06:46.705Z,2.18
2019-01-31T11:07:46.693Z,2.21
2019-01-31T11:08:46.680Z,2.21
2019-01-31T11:09:46.671Z,2.18
2019-01-31T11:10:46.657Z,2.18
2019-01-31T11:11:46.647Z,2.24
2019-01-31T11:12:46.633Z,2.27
2019-01-31T11:13:46.627Z,2.36
2019-01-31T11:14:46.611Z,2.23
2019-01-31T11:15:46.603Z,2.24
2019-01-31T11:16:46.588Z,2.27
2019-01-31T11:17:46.579Z,2.28
2019-01-31T11:18:46.566Z,2.31
2019-01-31T11:19:46.557Z,2.07
2019-01-31T11:20:46.546Z,1.95
2019-01-31T11:21:46.549Z,1.69
2019-01-31T11:22:46.522Z,1.58
2019-01-31T11:23:46.512Z,1.52
2019-01-31T11:24:46.500Z,1.59
2019-01-31T11:25:46.488Z,1.59
2019-01-31T11:26:46.492Z,1.60
2019-01-31T11:27:46.463Z,1.70
2019-01-31T11:28:46.455Z,1.72
2019-01-31T11:29:46.440Z,1.87
2019-01-31T11:30:46.431Z,1.79
2019-01-31T11:31:46.419Z,1.72
2019-01-31T11:32:46.657Z,1.79
2019-01-31T11:33:46.393Z,1.91
2019-01-31T11:34:46.387Z,1.86
2019-01-31T11:35:46.369Z,1.72
2019-01-31T11:36:46.360Z,1.72
2019-01-31T11:37:46.346Z,1.84
2019-01-31T11:38:46.337Z,1.72
2019-01-31T11:39:46.348Z,1.83
2019-01-31T11:40:46.313Z,1.90
2019-01-31T11:41:46.300Z,1.90
2019-01-31T11:42:46.289Z,1.98
2019-01-31T11:43:46.275Z,1.91
2019-01-31T11:44:46.265Z,1.87
2019-01-31T11:45:46.255Z,1.88
2019-01-31T11:46:46.255Z,1.65
2019-01-31T11:47:46.227Z,1.77
2019-01-31T11:48:46.223Z,1.77
2019-01-31T11:49:46.365Z,1.86
2019-01-31T11:50:46.195Z,1.88
2019-01-31T11:51:46.180Z,1.86
2019-01-31T11:52:46.170Z,1.80
2019-01-31T11:53:46.165Z,1.68
2019-01-31T11:54:46.163Z,1.65
2019-01-31T11:55:46.133Z,1.58
2019-01-31T11:56:46.125Z,1.62
2019-01-31T11:57:46.109Z,1.60
2019-01-31T11:58:46.100Z,1.80
2019-01-31T11:59:46.088Z,1.79
2019-01-31T12:00:46.076Z,1.79
2019-01-31T12:01:46.061Z,1.81
2019-01-31T12:02:54.814Z,1.86
2019-01-31T12:03:46.037Z,2.00
2019-01-31T12:04:46.027Z,2.02
2019-01-31T12:05:46.013Z,2.00
2019-01-31T12:06:46.004Z,2.17
2019-01-31T12:07:46.039Z,2.12
2019-01-31T12:08:45.999Z,2.10
2019-01-31T12:09:45.968Z,2.07
2019-01-31T12:10:45.956Z,1.84
2019-01-31T12:11:45.944Z,1.90
2019-01-31T12:12:45.940Z,2.10
2019-01-31T12:13:45.937Z,2.10
2019-01-31T12:14:45.911Z,2.21
2019-01-31T12:15:45.897Z,1.95
2019-01-31T12:16:45.886Z,1.91
2019-01-31T12:17:45.889Z,1.77
2019-01-31T12:18:45.880Z,1.90
2019-01-31T12:19:45.848Z,1.91
2019-01-31T12:20:45.839Z,1.91
2019-01-31T12:21:45.828Z,1.83
2019-01-31T12:22:45.830Z,1.80
2019-01-31T12:23:45.802Z,1.83
2019-01-31T12:24:45.896Z,1.83
2019-01-31T12:25:45.777Z,1.86
2019-01-31T12:26:45.768Z,1.81
2019-01-31T12:27:45.780Z,1.93
2019-01-31T12:28:45.744Z,2.00
2019-01-31T12:29:45.730Z,2.06
2019-01-31T12:30:45.721Z,2.06
2019-01-31T12:31:45.720Z,2.12
2019-01-31T12:32:45.695Z,2.06
2019-01-31T12:33:45.681Z,1.95
2019-01-31T12:34:45.685Z,1.90
2019-01-31T12:35:45.657Z,1.93
2019-01-31T12:36:45.657Z,1.88
2019-01-31T12:37:45.648Z,1.77
2019-01-31T12:38:45.632Z,1.87
2019-01-31T12:39:45.622Z,1.88
2019-01-31T12:40:45.602Z,1.93
2019-01-31T12:41:45.600Z,2.06
2019-01-31T12:42:45.588Z,2.09
2019-01-31T12:43:45.568Z,2.25
2019-01-31T12:44:45.551Z,2.28
2019-01-31T12:45:45.537Z,2.34
2019-01-31T12:46:45.538Z,2.07
2019-01-31T12:47:45.532Z,2.18
2019-01-31T12:48:45.518Z,2.28
2019-01-31T12:49:45.489Z,2.30
2019-01-31T12:50:45.482Z,2.39
2019-01-31T12:51:45.465Z,2.46
2019-01-31T12:52:45.469Z,2.46
2019-01-31T12:53:45.444Z,2.49
2019-01-31T12:54:45.441Z,2.57
2019-01-31T12:55:45.417Z,2.59
2019-01-31T12:56:45.409Z,2.54
2019-01-31T12:57:45.398Z,2.61
2019-01-31T12:58:45.400Z,2.61
2019-01-31T12:59:45.370Z,2.56
2019-01-31T13:00:45.360Z,2.46
2019-01-31T13:01:45.497Z,2.45
2019-01-31T13:02:45.345Z,2.46
2019-01-31T13:03:45.323Z,2.36
2019-01-31T13:04:45.314Z,2.42
2019-01-31T13:05:45.300Z,2.43
2019-01-31T13:06:45.293Z,2.52
2019-01-31T13:07:45.277Z,2.35
2019-01-31T13:08:45.267Z,2.34
2019-01-31T13:09:45.254Z,2.18
2019-01-31T13:10:45.245Z,2.20
2019-01-31T13:11:45.246Z,2.30
2019-01-31T13:12:48.821Z,2.39
2019-01-31T13:13:46.390Z,2.54
2019-01-31T13:14:45.200Z,2.60
2019-01-31T13:15:45.201Z,2.63
2019-01-31T13:16:45.209Z,2.61
2019-01-31T13:17:45.180Z,2.60
2019-01-31T13:18:45.153Z,2.67